Time;durP1;ratioP1;P1;durP2;ratioP2;P2;SDS_P1;SDS_P2;PMS_P1;PMS_P2;Temp;Humidity;BMP_temperature;BMP_pressure;BME280_temperature;BME280_humidity;BME280_pressure;Samples;Min_cycle;Max_cycle;Signal;HPM_P1;HPM_P2
2023/08/17 00:02:07;;;;;;;7.90;6.00;;;;;;;21.24;66.14;100040.08;107448;1253;70875;-38
2023/08/17 00:04:35;;;;;;;6.60;5.50;;;;;;;21.21;66.84;100042.60;107454;1254;60402;-39
2023/08/17 00:07:03;;;;;;;8.60;5.20;;;;;;;21.22;67.52;100038.73;107461;1254;60443;-39
2023/08/17 00:09:30;;;;;;;6.10;5.30;;;;;;;21.22;67.95;100042.29;107505;1253;72577;-39
2023/08/17 00:11:58;;;;;;;6.90;5.40;;;;;;;21.16;68.43;100040.40;107489;1253;66944;-39
2023/08/17 00:14:26;;;;;;;7.60;5.40;;;;;;;21.08;68.77;100043.23;107451;1257;71775;-39
2023/08/17 00:16:53;;;;;;;6.20;5.60;;;;;;;21.05;69.03;100042.02;107550;1254;61077;-39
2023/08/17 00:19:21;;;;;;;7.60;5.50;;;;;;;21.03;69.05;100043.06;107505;1254;60431;-39
2023/08/17 00:21:49;;;;;;;6.60;5.10;;;;;;;21.05;69.19;100047.30;107582;1253;73818;-39
2023/08/17 00:24:16;;;;;;;7.10;5.00;;;;;;;21.08;69.15;100048.83;107547;1254;66416;-39
2023/08/17 00:26:44;;;;;;;7.30;6.00;;;;;;;21.08;69.14;100044.34;107519;1259;72657;-38
2023/08/17 00:29:11;;;;;;;7.20;5.60;;;;;;;21.06;69.07;100045.46;107537;1253;60276;-38
2023/08/17 00:31:39;;;;;;;8.30;6.00;;;;;;;21.04;68.77;100042.35;107530;1253;60222;-39
2023/08/17 00:34:07;;;;;;;6.50;5.90;;;;;;;21.00;68.40;100042.33;107418;1254;73874;-38
2023/08/17 00:36:35;;;;;;;9.50;6.30;;;;;;;20.96;68.15;100043.01;107485;1254;66274;-38
2023/08/17 00:39:03;;;;;;;8.70;6.10;;;;;;;20.92;68.03;100046.27;107492;1253;72676;-39
2023/08/17 00:41:30;;;;;;;6.00;5.40;;;;;;;20.93;67.68;100047.53;107459;1254;60529;-38
2023/08/17 00:43:59;;;;;;;7.20;5.80;;;;;;;20.94;67.48;100046.89;107458;1253;60280;-39
2023/08/17 00:46:27;;;;;;;7.10;6.00;;;;;;;20.92;67.09;100049.27;107531;1254;73879;-39
2023/08/17 00:48:56;;;;;;;6.80;5.70;;;;;;;20.89;67.01;100046.86;107463;1253;66427;-38
2023/08/17 00:51:24;;;;;;;7.80;6.00;;;;;;;20.85;67.00;100047.47;107565;1253;72673;-39
2023/08/17 00:53:53;;;;;;;8.40;6.30;;;;;;;20.81;67.01;100045.70;107488;1254;60446;-38
2023/08/17 00:56:21;;;;;;;8.40;6.10;;;;;;;20.77;67.36;100049.13;107579;1252;60389;-38
2023/08/17 00:58:49;;;;;;;6.80;6.00;;;;;;;20.74;67.48;100054.20;107513;1257;73778;-38
2023/08/17 01:01:16;;;;;;;7.20;6.10;;;;;;;20.75;67.65;100052.94;107403;1254;67549;-38
2023/08/17 01:03:44;;;;;;;7.40;5.80;;;;;;;20.77;67.70;100050.63;107457;1259;72754;-38
2023/08/17 01:06:13;;;;;;;8.90;5.70;;;;;;;20.76;67.52;100052.45;107521;1254;62089;-40
2023/08/17 01:08:42;;;;;;;7.20;6.50;;;;;;;20.74;67.41;100046.10;107569;1254;60485;-40
2023/08/17 01:11:25;;;;;;;7.60;6.20;;;;;;;20.72;67.13;100048.96;107486;1254;73977;-40
2023/08/17 01:13:59;;;;;;;9.80;6.20;;;;;;;20.68;67.11;100048.13;107621;1253;66506;-40
2023/08/17 01:16:29;;;;;;;9.40;6.10;;;;;;;20.63;67.19;100048.73;107646;1257;72686;-40
2023/08/17 01:18:57;;;;;;;;;;;;;;;20.59;67.16;100048.77;107496;1254;60396;-40
2023/08/17 01:21:25;;;;;;;7.20;5.80;;;;;;;20.60;67.13;100046.80;107543;1260;60497;-40
2023/08/17 01:23:58;;;;;;;7.00;5.30;;;;;;;20.61;66.89;100047.91;107398;1254;72559;-39
2023/08/17 01:26:27;;;;;;;6.30;5.50;;;;;;;20.60;66.96;100044.76;107588;1257;67196;-40
2023/08/17 01:28:55;;;;;;;7.60;5.90;;;;;;;20.57;66.98;100046.28;107501;1254;72637;-39
2023/08/17 01:31:40;;;;;;;7.60;6.30;;;;;;;20.55;67.09;100047.48;107614;1254;60272;-39
2023/08/17 01:34:09;;;;;;;6.90;6.10;;;;;;;20.52;67.03;100043.76;107580;1254;60311;-39
2023/08/17 01:36:40;;;;;;;6.90;6.00;;;;;;;20.48;67.03;100042.77;107513;1257;72643;-39
2023/08/17 01:39:07;;;;;;;8.60;6.30;;;;;;;20.44;67.20;100046.88;107615;1254;66608;-40
2023/08/17 01:41:36;;;;;;;6.40;5.60;;;;;;;20.45;67.24;100043.98;107254;1259;74184;-40
2023/08/17 01:44:05;;;;;;;7.40;5.90;;;;;;;20.48;67.28;100043.49;107476;1254;60427;-40
2023/08/17 01:46:33;;;;;;;8.30;5.90;;;;;;;20.46;67.23;100044.27;107610;1254;60061;-40
2023/08/17 01:49:01;;;;;;;9.30;6.50;;;;;;;20.43;67.34;100042.51;107420;1254;73848;-39
2023/08/17 01:51:30;;;;;;;8.00;6.40;;;;;;;20.40;67.22;100044.10;107371;1254;66310;-39
2023/08/17 01:53:57;;;;;;;7.50;6.30;;;;;;;20.37;67.35;100046.65;107399;1259;72696;-39
2023/08/17 01:56:26;;;;;;;7.20;6.20;;;;;;;20.33;67.17;100045.11;107373;1254;60300;-40
2023/08/17 01:58:54;;;;;;;7.30;6.10;;;;;;;20.30;67.20;100047.88;107429;1254;60446;-39
2023/08/17 02:01:22;;;;;;;8.60;6.10;;;;;;;20.30;67.27;100042.30;107528;1259;73869;-39
2023/08/17 02:03:50;;;;;;;6.60;5.90;;;;;;;20.32;67.44;100046.23;107620;1254;67608;-40
2023/08/17 02:06:17;;;;;;;9.30;5.60;;;;;;;20.30;67.40;100042.46;107502;1254;72008;-39
2023/08/17 02:08:45;;;;;;;7.30;6.50;;;;;;;20.28;67.39;100045.85;107380;1253;60408;-39
2023/08/17 02:11:14;;;;;;;11.20;6.20;;;;;;;20.25;67.35;100041.16;107483;1254;60265;-40
2023/08/17 02:13:42;;;;;;;8.70;6.30;;;;;;;20.24;67.44;100043.91;107363;1252;73918;-40
2023/08/17 02:16:09;;;;;;;9.00;6.50;;;;;;;20.20;67.56;100044.03;107506;1253;66586;-40
2023/08/17 02:18:37;;;;;;;7.10;5.90;;;;;;;20.15;67.72;100042.97;107388;1259;72976;-39
2023/08/17 02:21:05;;;;;;;7.50;5.90;;;;;;;20.16;67.89;100045.25;107345;1253;61661;-39
2023/08/17 02:23:32;;;;;;;9.80;6.30;;;;;;;20.18;67.81;100044.54;107528;1253;60418;-39
2023/08/17 02:26:00;;;;;;;7.30;6.50;;;;;;;20.17;67.72;100045.56;107471;1253;72608;-40
2023/08/17 02:28:27;;;;;;;8.80;6.50;;;;;;;20.14;67.91;100044.80;107454;1253;67559;-40
2023/08/17 02:30:57;;;;;;;8.80;6.50;;;;;;;20.11;68.11;100048.13;107484;1254;71418;-40
2023/08/17 02:33:27;;;;;;;7.30;6.50;;;;;;;20.07;68.20;100048.24;107486;1254;60456;-40
2023/08/17 02:35:55;;;;;;;7.90;6.50;;;;;;;20.02;68.03;100053.71;107472;1254;60257;-40
2023/08/17 02:38:22;;;;;;;7.00;6.10;;;;;;;20.02;67.94;100052.21;107480;1254;73973;-40
2023/08/17 02:40:50;;;;;;;6.90;5.90;;;;;;;20.06;67.86;100053.36;107472;1255;67941;-39
2023/08/17 02:43:18;;;;;;;9.50;6.20;;;;;;;20.04;67.90;100056.45;107386;1257;71454;-39
2023/08/17 02:45:45;;;;;;;7.80;6.60;;;;;;;20.00;67.94;100058.83;107606;1253;60279;-40
2023/08/17 02:48:13;;;;;;;8.40;6.80;;;;;;;19.97;68.12;100061.77;107527;1254;60429;-40
2023/08/17 02:50:41;;;;;;;7.20;6.60;;;;;;;19.94;68.25;100062.58;107425;1253;72623;-39
2023/08/17 02:53:08;;;;;;;9.60;7.30;;;;;;;19.91;68.21;100061.74;107511;1254;66267;-39
2023/08/17 02:55:36;;;;;;;10.00;6.60;;;;;;;19.87;68.37;100059.88;107363;1254;71941;-39
2023/08/17 02:58:04;;;;;;;7.10;5.90;;;;;;;19.89;68.28;100060.81;107406;1254;61742;-40
2023/08/17 03:00:32;;;;;;;7.30;6.30;;;;;;;19.92;68.18;100058.52;107644;1254;59286;-40
2023/08/17 03:02:59;;;;;;;7.90;6.90;;;;;;;19.93;68.19;100059.21;107382;1254;73854;-40
2023/08/17 03:05:27;;;;;;;9.50;6.90;;;;;;;19.92;68.29;100055.20;107468;1254;67569;-40
2023/08/17 03:07:55;;;;;;;8.50;6.70;;;;;;;19.91;68.28;100059.62;107413;1254;72638;-40
2023/08/17 03:10:24;;;;;;;7.30;6.40;;;;;;;19.90;68.40;100060.34;107524;1254;60446;-40
2023/08/17 03:12:52;;;;;;;8.60;6.30;;;;;;;19.88;68.37;100057.38;107567;1252;60326;-40
2023/08/17 03:15:20;;;;;;;6.60;6.00;;;;;;;19.90;68.50;100058.38;107516;1254;73037;-40
2023/08/17 03:17:48;;;;;;;8.30;6.00;;;;;;;19.95;68.41;100060.36;107529;1251;65826;-40
2023/08/17 03:20:15;;;;;;;7.20;6.10;;;;;;;19.96;68.57;100057.92;107411;1254;72714;-40
2023/08/17 03:22:44;;;;;;;11.90;6.70;;;;;;;19.95;68.95;100061.30;107467;1256;60440;-40
2023/08/17 03:25:11;;;;;;;7.60;6.30;;;;;;;19.94;69.47;100061.78;107404;1254;60002;-40
2023/08/17 03:27:40;;;;;;;7.70;6.40;;;;;;;19.94;69.76;100062.42;107392;1254;73832;-40
2023/08/17 03:30:08;;;;;;;6.90;6.10;;;;;;;19.99;69.73;100063.88;107416;1259;67559;-40
2023/08/17 03:32:36;;;;;;;9.00;6.20;;;;;;;20.04;69.58;100059.60;107635;1253;71366;-40
2023/08/17 03:35:04;;;;;;;7.90;6.30;;;;;;;20.09;69.68;100061.12;107376;1257;60453;-40
2023/08/17 03:37:32;;;;;;;7.90;5.90;;;;;;;20.12;69.49;100061.41;107564;1254;61005;-40
2023/08/17 03:40:00;;;;;;;7.00;5.90;;;;;;;20.14;69.78;100060.67;107498;1254;72545;-40
2023/08/17 03:42:29;;;;;;;6.40;5.50;;;;;;;20.18;70.07;100061.19;107336;1254;66630;-40
2023/08/17 03:44:57;;;;;;;8.70;5.50;;;;;;;20.26;70.26;100064.91;107435;1255;72418;-40
2023/08/17 03:47:25;;;;;;;9.40;6.40;;;;;;;20.37;70.03;100063.48;107481;1254;60421;-40
2023/08/17 03:49:53;;;;;;;7.70;5.80;;;;;;;20.45;70.08;100068.21;107520;1253;60466;-40
2023/08/17 03:52:21;;;;;;;6.30;5.70;;;;;;;20.51;70.05;100069.56;107480;1254;72580;-40
2023/08/17 03:54:49;;;;;;;7.90;5.90;;;;;;;20.57;69.68;100061.48;107406;1259;67563;-40
2023/08/17 03:57:16;;;;;;;9.00;6.10;;;;;;;20.62;69.53;100060.72;107465;1254;71373;-40
2023/08/17 03:59:44;;;;;;;6.20;5.60;;;;;;;20.67;69.46;100055.47;107480;1254;61804;-40
2023/08/17 04:02:12;;;;;;;7.20;5.50;;;;;;;20.76;69.19;100055.75;107450;1254;60450;-40
2023/08/17 04:04:40;;;;;;;10.80;5.90;;;;;;;20.87;68.95;100056.66;107332;1254;73856;-40
2023/08/17 04:07:08;;;;;;;8.60;6.10;;;;;;;20.93;68.95;100056.89;107292;1259;67958;-40
2023/08/17 04:09:35;;;;;;;7.80;5.70;;;;;;;21.00;68.55;100055.70;107428;1257;72061;-40
2023/08/17 04:12:05;;;;;;;8.00;6.20;;;;;;;21.05;68.27;100054.23;107518;1254;60414;-40
2023/08/17 04:14:34;;;;;;;7.80;6.20;;;;;;;21.11;68.03;100057.86;107569;1254;60313;-40
2023/08/17 04:17:02;;;;;;;6.60;5.50;;;;;;;21.17;67.62;100056.39;107542;1254;73795;-40
2023/08/17 04:19:30;;;;;;;7.40;5.50;;;;;;;21.26;67.37;100057.30;107585;1258;66348;-40
2023/08/17 04:21:58;;;;;;;8.60;6.10;;;;;;;21.37;67.29;100059.20;107485;1257;72659;-39
2023/08/17 04:24:26;;;;;;;9.20;5.90;;;;;;;21.44;67.00;100064.05;107356;1251;60381;-39
2023/08/17 04:26:54;;;;;;;7.70;6.00;;;;;;;21.50;66.97;100061.77;107370;1251;60578;-39
2023/08/17 04:29:23;;;;;;;7.60;5.90;;;;;;;21.56;66.60;100064.75;107564;1251;73806;-39
2023/08/17 04:31:51;;;;;;;6.90;6.20;;;;;;;21.63;66.41;100065.27;107597;1251;66609;-40
2023/08/17 04:34:19;;;;;;;10.00;6.10;;;;;;;21.68;66.10;100063.70;107457;1254;72645;-39
2023/08/17 04:36:46;;;;;;;8.40;6.10;;;;;;;21.73;65.95;100066.55;107530;1251;61655;-39
2023/08/17 04:39:15;;;;;;;8.00;5.10;;;;;;;21.80;65.64;100066.59;107479;1255;60271;-39
2023/08/17 04:41:43;;;;;;;7.60;5.70;;;;;;;21.89;65.61;100065.43;107438;1251;73853;-39
2023/08/17 04:44:12;;;;;;;13.50;6.00;;;;;;;21.95;65.41;100068.59;107459;1258;66431;-39
2023/08/17 04:46:40;;;;;;;8.00;6.00;;;;;;;22.01;65.19;100071.26;107637;1254;71434;-39
2023/08/17 04:49:08;;;;;;;7.50;5.90;;;;;;;22.06;65.00;100073.77;107513;1251;60309;-39
2023/08/17 04:51:35;;;;;;;6.70;5.80;;;;;;;22.12;64.80;100075.19;107579;1251;60501;-39
2023/08/17 04:54:03;;;;;;;6.30;5.70;;;;;;;22.17;64.78;100076.29;107653;1251;74391;-39
2023/08/17 04:56:31;;;;;;;9.10;5.70;;;;;;;22.22;64.60;100072.48;107692;1252;67068;-39
2023/08/17 04:58:59;;;;;;;7.70;5.40;;;;;;;22.31;64.51;100076.91;107422;1259;71378;-39
2023/08/17 05:01:28;;;;;;;16.10;6.00;;;;;;;22.42;63.99;100077.26;107556;1256;60451;-39
2023/08/17 05:03:55;;;;;;;7.60;5.50;;;;;;;22.50;63.86;100077.04;107563;1257;60409;-39
2023/08/17 05:06:23;;;;;;;6.70;5.30;;;;;;;22.56;63.46;100075.83;107411;1254;72571;-39
2023/08/17 05:08:52;;;;;;;6.40;5.40;;;;;;;22.64;62.84;100082.70;107344;1259;68374;-39
2023/08/17 05:11:19;;;;;;;7.70;4.90;;;;;;;22.69;62.53;100082.79;107179;1254;71098;-39
2023/08/17 05:13:47;;;;;;;5.70;5.00;;;;;;;22.75;62.33;100085.22;107285;1254;60530;-40
2023/08/17 05:16:15;;;;;;;8.20;5.60;;;;;;;22.79;62.27;100080.39;107511;1254;60727;-39
2023/08/17 05:18:42;;;;;;;7.50;5.30;;;;;;;22.85;61.91;100079.02;107419;1254;73866;-39
2023/08/17 05:21:11;;;;;;;10.50;5.20;;;;;;;22.89;61.74;100083.41;107422;1259;67548;-39
2023/08/17 05:23:38;;;;;;;6.30;5.10;;;;;;;22.94;61.80;100080.48;107360;1257;72695;-37
2023/08/17 05:26:06;;;;;;;4.90;4.40;;;;;;;22.99;61.51;100077.78;107295;1259;60431;-39
2023/08/17 05:28:34;;;;;;;7.50;4.50;;;;;;;23.09;61.10;100077.96;107357;1259;59528;-39
2023/08/17 05:31:06;;;;;;;8.00;5.10;;;;;;;23.20;60.95;100076.17;107343;1252;73942;-38
2023/08/17 05:33:36;;;;;;;6.50;5.20;;;;;;;23.28;60.67;100077.41;107421;1258;68176;-38
2023/08/17 05:36:03;;;;;;;7.70;5.10;;;;;;;23.35;60.41;100078.77;107293;1257;71857;-38
2023/08/17 05:38:32;;;;;;;6.70;4.80;;;;;;;23.43;60.36;100076.55;107549;1259;60283;-40
2023/08/17 05:41:08;;;;;;;7.90;4.80;;;;;;;23.51;60.07;100075.52;107500;1252;60463;-40
2023/08/17 05:43:36;;;;;;;7.20;4.60;;;;;;;23.58;59.82;100080.35;107585;1254;74279;-40
2023/08/17 05:46:03;;;;;;;6.40;4.80;;;;;;;23.65;59.62;100077.89;107537;1257;67597;-40
2023/08/17 05:48:32;;;;;;;7.30;4.60;;;;;;;23.72;59.04;100075.98;107541;1254;72644;-40
2023/08/17 05:51:00;;;;;;;5.70;4.70;;;;;;;23.78;58.26;100076.70;107464;1257;60427;-40
2023/08/17 05:53:27;;;;;;;7.10;4.80;;;;;;;23.85;58.67;100081.05;107530;1251;60315;-40
2023/08/17 05:55:55;;;;;;;6.70;5.00;;;;;;;23.90;58.60;100078.71;107499;1251;73828;-40
2023/08/17 05:58:22;;;;;;;6.10;4.50;;;;;;;23.96;58.19;100072.40;107551;1256;67902;-40
2023/08/17 06:00:50;;;;;;;5.80;3.90;;;;;;;24.02;57.47;100074.48;107547;1251;72923;-40
2023/08/17 06:03:19;;;;;;;9.60;4.10;;;;;;;24.07;56.94;100074.11;107632;1254;60524;-40
2023/08/17 06:05:52;;;;;;;8.10;3.90;;;;;;;24.13;56.34;100074.29;107359;1256;60322;-39
2023/08/17 06:08:20;;;;;;;6.80;4.40;;;;;;;24.19;56.16;100071.86;107818;1257;73698;-39
2023/08/17 06:10:47;;;;;;;5.90;3.90;;;;;;;24.25;56.36;100074.38;107716;1257;67781;-39
2023/08/17 06:13:15;;;;;;;4.80;3.30;;;;;;;24.32;55.53;100077.54;107605;1254;74409;-39
2023/08/17 06:15:44;;;;;;;8.90;3.70;;;;;;;24.39;55.05;100076.65;107503;1256;60424;-39
2023/08/17 06:18:12;;;;;;;7.10;3.30;;;;;;;24.46;55.01;100073.77;107514;1257;60408;-39
2023/08/17 06:20:39;;;;;;;4.70;3.40;;;;;;;24.54;54.34;100075.61;107508;1252;72622;-39
2023/08/17 06:23:07;;;;;;;12.00;3.90;;;;;;;24.61;54.52;100075.27;107511;1254;67715;-39
2023/08/17 06:25:35;;;;;;;8.00;3.70;;;;;;;24.68;53.60;100070.95;107667;1251;72629;-39
2023/08/17 06:28:03;;;;;;;5.00;3.50;;;;;;;24.75;52.89;100070.85;107647;1252;60428;-39
2023/08/17 06:33:20;;;;;;;4.80;3.70;;;;;;;24.88;53.03;100074.79;104043;1292;601236;-38
2023/08/17 06:35:48;;;;;;;9.30;4.50;;;;;;;24.95;53.44;100067.77;106504;1267;59343;-38
2023/08/17 06:38:16;;;;;;;7.00;4.30;;;;;;;25.04;54.10;100069.74;106589;1267;60058;-38
2023/08/17 06:40:45;;;;;;;12.80;4.40;;;;;;;25.11;53.55;100069.46;106487;1266;71438;-39
2023/08/17 06:43:13;;;;;;;10.90;6.80;;;;;;;25.18;52.99;100068.95;106457;1267;68389;-39
2023/08/17 06:45:44;;;;;;;7.70;4.20;;;;;;;25.25;52.91;100069.17;106865;1267;72747;-39
2023/08/17 06:48:11;;;;;;;6.20;5.40;;;;;;;25.34;52.90;100065.14;106441;1264;61009;-39
2023/08/17 06:50:39;;;;;;;5.80;3.60;;;;;;;25.41;52.29;100063.08;106707;1263;59227;-39
2023/08/17 06:53:07;;;;;;;4.70;3.40;;;;;;;25.50;51.63;100064.70;106649;1264;72295;-39
2023/08/17 06:55:37;;;;;;;5.70;3.50;;;;;;;25.60;51.27;100064.60;107110;1259;67568;-39
2023/08/17 06:58:13;;;;;;;5.50;3.20;;;;;;;25.68;50.86;100063.86;107067;1257;73130;-40
2023/08/17 07:00:41;;;;;;;6.30;3.70;;;;;;;25.77;51.14;100060.08;107083;1257;59624;-39
2023/08/17 07:03:08;;;;;;;6.10;3.00;;;;;;;25.87;50.59;100066.11;107079;1257;59474;-39
2023/08/17 07:05:36;;;;;;;9.30;2.50;;;;;;;25.95;48.66;100068.55;107033;1257;71803;-39
2023/08/17 07:08:04;;;;;;;5.10;3.10;;;;;;;26.00;48.25;100067.89;107047;1257;66263;-39
2023/08/17 07:10:31;;;;;;;6.50;3.30;;;;;;;26.06;47.66;100065.23;107097;1257;72602;-39
2023/08/17 07:13:03;;;;;;;4.10;2.70;;;;;;;26.10;47.59;100064.32;107182;1257;60457;-39
2023/08/17 07:15:31;;;;;;;5.50;2.70;;;;;;;26.15;47.18;100059.62;107218;1257;59529;-39
2023/08/17 07:17:59;;;;;;;7.00;5.10;;;;;;;26.23;47.01;100056.11;107105;1260;71572;-39
2023/08/17 07:20:27;;;;;;;8.30;2.70;;;;;;;26.33;46.92;100055.21;107006;1257;67653;-39
2023/08/17 07:22:54;;;;;;;2.90;2.30;;;;;;;26.43;45.78;100059.10;107108;1260;71418;-39
2023/08/17 07:25:22;;;;;;;8.30;2.70;;;;;;;26.49;46.01;100054.58;107064;1258;60064;-40
2023/08/17 07:27:50;;;;;;;5.00;2.40;;;;;;;26.57;45.84;100064.21;107028;1261;60079;-40
2023/08/17 07:30:17;;;;;;;5.10;2.60;;;;;;;26.65;46.08;100064.35;106990;1257;73151;-40
2023/08/17 07:32:45;;;;;;;5.10;2.50;;;;;;;26.73;45.93;100064.45;107056;1258;66283;-40
2023/08/17 07:35:12;;;;;;;3.80;2.60;;;;;;;26.84;45.74;100055.96;107099;1260;71673;-39
2023/08/17 07:37:40;;;;;;;5.80;2.60;;;;;;;26.95;45.64;100057.61;107030;1259;60139;-39
2023/08/17 07:40:10;;;;;;;4.50;2.50;;;;;;;27.07;45.10;100059.26;107064;1260;60877;-40
2023/08/17 07:42:37;;;;;;;6.50;2.70;;;;;;;27.17;45.05;100063.00;106975;1257;73146;-40
2023/08/17 07:45:07;;;;;;;4.80;2.20;;;;;;;27.30;44.47;100062.42;107106;1257;67926;-40
2023/08/17 07:47:36;;;;;;;4.90;2.50;;;;;;;27.39;43.71;100061.35;107171;1259;71908;-40
2023/08/17 07:50:05;;;;;;;2.50;2.10;;;;;;;27.47;43.73;100056.04;107161;1257;59490;-40
2023/08/17 07:52:32;;;;;;;3.10;2.20;;;;;;;27.57;43.05;100058.45;107239;1257;59977;-40
2023/08/17 07:55:00;;;;;;;5.80;2.40;;;;;;;27.68;43.20;100056.05;107168;1261;71783;-40
2023/08/17 07:57:27;;;;;;;3.30;2.20;;;;;;;27.78;43.42;100055.86;107113;1258;66375;-40
2023/08/17 07:59:55;;;;;;;3.70;2.20;;;;;;;27.90;42.97;100057.81;107038;1260;72696;-40
2023/08/17 08:02:23;;;;;;;4.50;2.40;;;;;;;28.02;42.24;100056.55;107094;1259;59618;-40
2023/08/17 08:04:51;;;;;;;5.90;2.80;;;;;;;28.13;41.83;100054.20;107148;1257;60017;-41
2023/08/17 08:07:19;;;;;;;3.50;2.60;;;;;;;28.22;41.37;100055.67;107187;1257;71874;-41
2023/08/17 08:09:47;;;;;;;65.60;6.60;;;;;;;28.28;41.25;100051.41;107030;1260;66632;-41
2023/08/17 08:12:14;;;;;;;7.50;2.50;;;;;;;28.36;41.80;100052.04;107078;1257;71810;-40
2023/08/17 08:14:42;;;;;;;8.50;2.40;;;;;;;28.45;41.53;100047.88;107042;1257;60174;-41
2023/08/17 08:17:09;;;;;;;3.70;1.90;;;;;;;28.55;41.02;100043.48;107133;1257;59531;-41
2023/08/17 08:19:37;;;;;;;3.90;1.80;;;;;;;28.66;40.72;100050.33;107192;1260;71899;-41
2023/08/17 08:22:04;;;;;;;7.30;2.10;;;;;;;28.76;40.50;100052.20;107065;1257;67543;-41
2023/08/17 08:24:34;;;;;;;3.80;2.50;;;;;;;28.87;40.08;100049.95;107109;1262;72701;-41
2023/08/17 08:27:05;;;;;;;8.90;3.40;;;;;;;28.96;39.26;100044.52;107192;1257;59568;-41
2023/08/17 08:29:33;;;;;;;4.70;2.20;;;;;;;29.00;38.95;100041.56;107218;1257;60071;-41
2023/08/17 08:32:02;;;;;;;7.40;4.30;;;;;;;29.01;39.12;100045.89;107161;1257;71755;-41
2023/08/17 08:34:30;;;;;;;4.50;2.50;;;;;;;29.06;39.31;100042.73;107196;1257;68056;-40
2023/08/17 08:36:58;;;;;;;9.40;2.60;;;;;;;29.14;38.98;100043.79;107078;1260;72676;-41
2023/08/17 08:39:26;;;;;;;5.30;2.10;;;;;;;29.20;38.72;100045.02;107071;1257;59590;-41
2023/08/17 08:41:54;;;;;;;5.10;2.10;;;;;;;29.24;38.80;100044.35;107018;1258;60050;-41
2023/08/17 08:44:22;;;;;;;4.50;2.00;;;;;;;29.30;38.62;100039.81;107037;1258;73067;-41
2023/08/17 08:46:50;;;;;;;2.80;1.80;;;;;;;29.35;38.35;100038.96;106950;1260;67887;-41
2023/08/17 08:49:21;;;;;;;4.00;2.00;;;;;;;29.37;38.65;100040.33;106992;1258;72674;-41
2023/08/17 08:51:50;;;;;;;7.60;2.20;;;;;;;29.39;38.11;100040.72;106942;1260;59624;-41
2023/08/17 08:54:24;;;;;;;3.90;2.30;;;;;;;29.42;38.28;100043.35;107219;1257;61136;-41
2023/08/17 08:56:55;;;;;;;3.00;1.90;;;;;;;29.48;38.49;100040.69;107107;1262;73044;-41
2023/08/17 08:59:23;;;;;;;33.40;4.30;;;;;;;29.54;38.41;100038.30;106965;1257;67579;-41
2023/08/17 09:01:50;;;;;;;6.30;2.00;;;;;;;29.61;37.49;100027.17;106881;1257;71231;-41
2023/08/17 09:04:19;;;;;;;7.90;2.60;;;;;;;29.66;37.54;100028.61;107101;1260;59622;-41
2023/08/17 09:06:46;;;;;;;2.30;2.10;;;;;;;29.69;37.02;100030.15;106987;1259;59576;-41
2023/08/17 09:09:15;;;;;;;3.70;2.10;;;;;;;29.71;37.21;100030.70;107105;1260;71819;-41
2023/08/17 09:11:43;;;;;;;7.30;2.30;;;;;;;29.75;37.68;100032.88;107132;1257;66766;-39
2023/08/17 09:14:12;;;;;;;3.80;2.30;;;;;;;29.80;37.48;100030.21;107077;1257;72685;-39
2023/08/17 09:16:39;;;;;;;5.20;2.30;;;;;;;29.89;37.36;100033.59;106991;1257;60140;-39
2023/08/17 09:19:07;;;;;;;4.70;2.20;;;;;;;29.98;37.06;100030.10;107099;1258;59985;-40
2023/08/17 09:21:36;;;;;;;4.30;2.10;;;;;;;30.03;36.54;100027.42;107107;1257;73027;-40
2023/08/17 09:24:04;;;;;;;2.80;2.30;;;;;;;30.05;36.61;100029.84;107109;1257;67785;-40
2023/08/17 09:26:32;;;;;;;5.80;2.10;;;;;;;30.07;36.87;100024.46;107058;1257;73201;-40
2023/08/17 09:29:02;;;;;;;2.90;2.00;;;;;;;30.12;36.75;100022.58;107150;1260;60549;-40
2023/08/17 09:31:31;;;;;;;7.30;2.60;;;;;;;30.21;36.85;100021.33;107066;1257;60013;-40
2023/08/17 09:33:58;;;;;;;4.70;2.40;;;;;;;30.31;36.26;100019.91;107019;1259;73117;-40
2023/08/17 09:36:26;;;;;;;6.40;2.40;;;;;;;30.40;36.41;100021.22;107101;1257;66335;-40
2023/08/17 09:38:55;;;;;;;5.70;2.70;;;;;;;30.53;36.19;100018.59;107028;1260;72694;-40
2023/08/17 09:41:23;;;;;;;4.30;2.60;;;;;;;30.68;35.74;100016.41;107020;1257;60151;-40
2023/08/17 09:43:55;;;;;;;9.40;2.60;;;;;;;30.82;35.45;100021.09;107041;1257;60097;-40
2023/08/17 09:46:23;;;;;;;3.90;2.60;;;;;;;30.96;35.05;100016.41;107244;1257;73073;-40
2023/08/17 09:48:51;;;;;;;4.40;2.60;;;;;;;31.11;34.69;100018.20;107203;1257;67557;-40
2023/08/17 09:51:19;;;;;;;9.30;2.60;;;;;;;31.21;34.34;100021.08;107070;1257;72740;-40
2023/08/17 09:53:52;;;;;;;3.90;2.60;;;;;;;31.27;34.71;100017.55;107070;1257;60556;-40
2023/08/17 09:56:26;;;;;;;4.70;2.60;;;;;;;31.32;34.69;100015.04;107338;1260;60573;-40
2023/08/17 09:58:55;;;;;;;3.20;2.30;;;;;;;31.34;34.52;100008.86;107227;1257;73053;-40
2023/08/17 10:01:22;;;;;;;3.80;2.90;;;;;;;31.36;34.64;100012.05;107177;1257;66771;-40
2023/08/17 10:03:50;;;;;;;5.10;2.70;;;;;;;31.40;34.52;100009.25;107018;1257;73131;-40
2023/08/17 10:06:21;;;;;;;6.10;2.70;;;;;;;31.41;34.40;100007.90;106934;1258;60762;-40
2023/08/17 10:08:53;;;;;;;4.10;2.70;;;;;;;31.47;34.68;100002.02;107073;1257;59586;-40
2023/08/17 10:11:21;;;;;;;16.40;3.00;;;;;;;31.62;34.43;100003.58;106925;1257;73058;-40
2023/08/17 10:14:02;;;;;;;3.60;2.50;;;;;;;31.79;33.71;100000.81;107022;1257;67884;-40
2023/08/17 10:16:35;;;;;;;4.40;2.30;;;;;;;31.96;33.53;100000.21;107153;1257;71477;-40
2023/08/17 10:19:29;;;;;;;9.00;3.20;;;;;;;32.15;33.44;100000.34;107106;1257;60040;-41
2023/08/17 10:22:15;;;;;;;5.80;2.70;;;;;;;32.39;32.91;99997.80;107125;1257;60145;-40
2023/08/17 10:24:48;;;;;;;4.70;2.20;;;;;;;32.60;32.81;99998.84;107084;1257;73075;-40
2023/08/17 10:27:16;;;;;;;4.80;2.50;;;;;;;32.74;32.01;100000.22;106940;1257;66941;-40
2023/08/17 10:29:44;;;;;;;4.80;2.70;;;;;;;32.88;32.14;99994.02;106974;1257;72811;-40
2023/08/17 10:32:11;;;;;;;4.20;2.50;;;;;;;33.05;31.96;99994.47;107058;1257;60071;-41
2023/08/17 10:34:43;;;;;;;3.40;2.50;;;;;;;33.21;31.96;99992.33;107158;1260;60005;-40
2023/08/17 10:37:11;;;;;;;3.60;2.30;;;;;;;33.39;31.84;99988.31;107142;1257;73108;-40
2023/08/17 10:39:45;;;;;;;7.10;2.30;;;;;;;33.56;31.74;99984.84;107168;1257;66729;-40
2023/08/17 10:42:12;;;;;;;3.70;2.40;;;;;;;33.70;31.31;99976.45;107183;1257;72735;-39
2023/08/17 10:44:47;;;;;;;3.00;2.10;;;;;;;33.80;30.51;99974.82;107087;1262;60315;-39
2023/08/17 10:47:22;;;;;;;5.40;2.00;;;;;;;33.84;30.19;99979.73;107054;1263;60353;-39
2023/08/17 10:50:04;;;;;;;5.60;2.40;;;;;;;33.92;30.37;99974.88;107103;1257;73894;-39
2023/08/17 10:52:36;;;;;;;2.50;2.00;;;;;;;34.09;30.11;99971.75;107125;1257;68071;-39
2023/08/17 10:55:08;;;;;;;3.80;1.90;;;;;;;34.20;30.13;99968.23;107090;1257;72663;-39
2023/08/17 10:57:40;;;;;;;8.20;2.30;;;;;;;34.34;30.11;99968.34;107176;1257;60438;-40
2023/08/17 11:00:27;;;;;;;5.30;2.10;;;;;;;34.46;30.35;99963.55;107138;1257;60303;-40
2023/08/17 11:03:00;;;;;;;4.40;2.00;;;;;;;34.64;30.05;99963.68;107181;1262;73984;-40
2023/08/17 11:05:57;;;;;;;5.40;1.90;;;;;;;34.83;29.29;99958.02;107193;1261;67919;-41
2023/08/17 11:08:31;;;;;;;9.10;2.20;;;;;;;35.03;28.72;99956.67;107055;1257;72687;-40
2023/08/17 11:11:05;;;;;;;2.60;1.90;;;;;;;35.23;28.39;99955.77;107471;1262;60406;-41
2023/08/17 11:13:34;;;;;;;3.00;1.80;;;;;;;35.33;27.11;99959.48;107161;1257;60376;-41
2023/08/17 11:16:02;;;;;;;2.40;1.60;;;;;;;35.43;26.84;99954.08;107165;1257;73854;-41
2023/08/17 11:18:31;;;;;;;;;;;;;;;35.57;26.86;99954.40;107242;1257;67556;-41
2023/08/17 11:21:03;;;;;;;16.30;2.30;;;;;;;35.72;26.74;99955.10;107185;1257;73154;-41
2023/08/17 11:23:31;;;;;;;4.70;1.90;;;;;;;35.89;26.45;99952.61;107166;1260;60879;-41
2023/08/17 11:25:59;;;;;;;2.20;1.80;;;;;;;36.03;26.29;99952.81;107175;1257;60480;-40
2023/08/17 11:28:33;;;;;;;3.40;1.90;;;;;;;36.20;25.74;99948.43;107173;1257;73854;-41